createdAt,value
2023-02-16T00:02:30.624Z,4.44
2023-02-16T00:05:25.081Z,4.39
2023-02-16T00:08:11.514Z,4.35
2023-02-16T00:11:17.064Z,4.28
2023-02-16T00:14:04.756Z,4.31
2023-02-16T00:16:51.645Z,4.31
2023-02-16T00:19:40.359Z,4.23
2023-02-16T00:22:27.059Z,4.24
2023-02-16T00:25:13.676Z,4.25
2023-02-16T00:28:02.667Z,4.21
2023-02-16T00:30:50.156Z,4.21
2023-02-16T00:33:36.957Z,4.13
2023-02-16T00:36:23.336Z,4.13
2023-02-16T00:39:09.747Z,4.09
2023-02-16T00:41:59.102Z,4.14
2023-02-16T00:44:49.688Z,4.20
2023-02-16T00:47:38.255Z,4.09
2023-02-16T00:50:27.365Z,4.12
2023-02-16T00:53:14.390Z,4.21
2023-02-16T00:56:00.835Z,4.23
2023-02-16T00:58:48.403Z,4.18
2023-02-16T01:01:37.269Z,4.15
2023-02-16T01:04:24.919Z,4.27
2023-02-16T01:07:30.686Z,4.27
2023-02-16T01:10:36.041Z,4.31
2023-02-16T01:13:23.579Z,4.28
2023-02-16T01:16:15.588Z,4.27
2023-02-16T01:19:03.814Z,4.32
2023-02-16T01:21:50.143Z,4.13
2023-02-16T01:24:36.774Z,4.17
2023-02-16T01:27:23.263Z,4.16
2023-02-16T01:30:15.021Z,4.11
2023-02-16T01:33:03.065Z,4.09
2023-02-16T01:35:51.758Z,4.24
2023-02-16T01:38:38.256Z,4.28
2023-02-16T01:41:38.451Z,4.30
2023-02-16T01:44:28.306Z,4.36
2023-02-16T01:47:27.225Z,4.39
2023-02-16T01:50:18.732Z,4.49
2023-02-16T01:53:17.053Z,4.63
2023-02-16T01:56:06.847Z,4.59
2023-02-16T01:58:57.542Z,4.66
2023-02-16T02:01:49.186Z,4.62
2023-02-16T02:04:59.044Z,4.63
2023-02-16T02:07:50.843Z,4.67
2023-02-16T02:10:46.707Z,4.63
2023-02-16T02:13:39.175Z,4.75
2023-02-16T02:16:28.656Z,4.79
2023-02-16T02:19:15.336Z,4.76
2023-02-16T02:22:55.628Z,4.70
2023-02-16T02:26:25.900Z,4.79
2023-02-16T02:29:29.666Z,4.88
2023-02-16T02:32:29.047Z,4.82
2023-02-16T02:35:30.463Z,4.87
2023-02-16T02:38:26.500Z,4.68
2023-02-16T02:41:22.928Z,4.71
2023-02-16T02:44:10.994Z,4.67
2023-02-16T02:46:58.687Z,4.71
2023-02-16T02:49:50.992Z,4.76
2023-02-16T02:52:37.503Z,4.87
2023-02-16T02:55:41.957Z,4.87
2023-02-16T02:58:49.768Z,4.80
2023-02-16T03:01:38.838Z,4.60
2023-02-16T03:04:30.243Z,4.63
2023-02-16T03:07:18.232Z,4.73
2023-02-16T03:10:18.889Z,4.67
2023-02-16T03:13:09.105Z,4.79
2023-02-16T03:15:58.082Z,4.75
2023-02-16T03:19:05.445Z,4.83
2023-02-16T03:22:12.127Z,5.04
2023-02-16T03:25:16.728Z,4.95
2023-02-16T03:28:25.673Z,4.99
2023-02-16T03:31:16.070Z,5.05
2023-02-16T03:34:03.461Z,5.03
2023-02-16T03:36:58.394Z,5.03
2023-02-16T03:40:02.669Z,5.09
2023-02-16T03:42:51.117Z,5.13
2023-02-16T03:45:40.546Z,5.04
2023-02-16T03:48:27.058Z,5.13
2023-02-16T03:51:13.658Z,5.11
2023-02-16T03:54:02.215Z,5.07
2023-02-16T03:56:48.463Z,5.11
2023-02-16T03:59:34.905Z,5.20
2023-02-16T04:02:22.021Z,5.28
2023-02-16T04:05:09.150Z,5.30
2023-02-16T04:07:55.486Z,5.37
2023-02-16T04:10:43.407Z,5.36
2023-02-16T04:13:29.166Z,5.37
2023-02-16T04:16:15.867Z,5.33
2023-02-16T04:19:02.403Z,5.33
2023-02-16T04:21:48.854Z,5.37
2023-02-16T04:24:35.377Z,5.17
2023-02-16T04:27:23.398Z,5.33
2023-02-16T04:30:13.605Z,5.39
2023-02-16T04:33:00.231Z,5.42
2023-02-16T04:35:46.700Z,5.36
2023-02-16T04:38:33.302Z,5.43
2023-02-16T04:41:19.948Z,5.53
2023-02-16T04:44:07.920Z,5.47
2023-02-16T04:46:54.840Z,5.55
2023-02-16T04:49:41.812Z,5.53
2023-02-16T04:52:28.539Z,5.60
2023-02-16T04:55:15.214Z,5.61
2023-02-16T04:58:01.848Z,5.65
2023-02-16T05:00:49.641Z,5.59
2023-02-16T05:03:36.434Z,5.50
2023-02-16T05:06:23.573Z,5.70
2023-02-16T05:09:10.269Z,5.82
2023-02-16T05:12:14.430Z,5.65
2023-02-16T05:15:01.101Z,5.56
2023-02-16T05:17:48.939Z,5.55
2023-02-16T05:20:53.178Z,5.60
2023-02-16T05:23:39.681Z,5.59
2023-02-16T05:26:26.522Z,5.55
2023-02-16T05:29:12.841Z,5.60
2023-02-16T05:31:59.605Z,5.58
2023-02-16T05:34:48.132Z,5.63
2023-02-16T05:37:34.552Z,5.55
2023-02-16T05:40:21.240Z,5.71
2023-02-16T05:43:07.686Z,5.65
2023-02-16T05:45:54.298Z,5.58
2023-02-16T05:48:40.685Z,5.68
2023-02-16T05:51:29.111Z,5.70
2023-02-16T05:54:17.971Z,5.51
2023-02-16T05:57:04.821Z,5.86
2023-02-16T05:59:51.096Z,5.81
2023-02-16T06:02:37.936Z,5.61
2023-02-16T06:05:24.432Z,5.45
2023-02-16T06:08:12.332Z,5.58
2023-02-16T06:10:59.297Z,5.61
2023-02-16T06:13:45.844Z,5.68
2023-02-16T06:16:33.618Z,5.77
2023-02-16T06:19:21.328Z,5.74
2023-02-16T06:22:07.596Z,5.67
2023-02-16T06:24:55.491Z,5.63
2023-02-16T06:27:42.238Z,5.78
2023-02-16T06:30:29.265Z,5.88
2023-02-16T06:33:16.031Z,5.98
2023-02-16T06:36:03.063Z,6.01
2023-02-16T06:38:50.128Z,5.98
2023-02-16T06:41:40.445Z,6.04
2023-02-16T06:44:27.222Z,6.02
2023-02-16T06:47:13.911Z,5.83
2023-02-16T06:50:00.565Z,5.76
2023-02-16T06:52:47.198Z,5.89
2023-02-16T06:55:36.677Z,5.85
2023-02-16T06:58:24.718Z,5.86
2023-02-16T07:01:12.037Z,6.08
2023-02-16T07:03:59.072Z,6.13
2023-02-16T07:06:45.702Z,6.03
2023-02-16T07:09:32.258Z,6.11
2023-02-16T07:12:18.970Z,6.03
2023-02-16T07:15:07.879Z,6.04
2023-02-16T07:17:54.649Z,6.14
2023-02-16T07:20:41.966Z,6.28
2023-02-16T07:23:28.638Z,6.19
2023-02-16T07:26:15.662Z,6.07
2023-02-16T07:29:02.619Z,6.17
2023-02-16T07:31:51.422Z,6.21
2023-02-16T07:34:38.331Z,6.20
2023-02-16T07:37:25.155Z,6.18
2023-02-16T07:40:13.422Z,6.36
2023-02-16T07:43:01.150Z,6.42
2023-02-16T07:45:47.633Z,6.38
2023-02-16T07:48:35.870Z,6.48
2023-02-16T07:51:23.740Z,6.46
2023-02-16T07:54:10.601Z,6.67
2023-02-16T07:56:57.049Z,6.61
2023-02-16T07:59:43.875Z,6.59
2023-02-16T08:02:30.305Z,6.61
2023-02-16T08:05:18.525Z,6.72
2023-02-16T08:08:05.466Z,6.72
2023-02-16T08:10:52.238Z,6.60
2023-02-16T08:13:39.070Z,6.72
2023-02-16T08:16:28.020Z,6.79
2023-02-16T08:19:14.381Z,6.82
2023-02-16T08:22:03.345Z,6.66
2023-02-16T08:24:50.018Z,6.71
2023-02-16T08:27:36.779Z,6.87
2023-02-16T08:30:24.937Z,6.74
2023-02-16T08:33:11.661Z,6.71
2023-02-16T08:35:58.143Z,6.76
2023-02-16T08:38:45.945Z,6.82
2023-02-16T08:41:35.322Z,6.98
2023-02-16T08:44:24.232Z,6.82
2023-02-16T08:47:10.917Z,6.74
2023-02-16T08:49:57.521Z,6.86
2023-02-16T08:52:45.635Z,6.83
2023-02-16T08:55:33.262Z,6.83
2023-02-16T08:58:19.855Z,6.99
2023-02-16T09:01:08.235Z,6.76
2023-02-16T09:03:55.509Z,6.90
2023-02-16T09:06:44.135Z,6.73
2023-02-16T09:09:30.574Z,6.60
2023-02-16T09:12:18.575Z,6.75
2023-02-16T09:15:05.826Z,6.66
2023-02-16T09:17:52.312Z,6.63
2023-02-16T09:20:40.022Z,6.73
2023-02-16T09:23:27.233Z,6.90
2023-02-16T09:26:15.305Z,6.73
2023-02-16T09:29:03.591Z,6.87
2023-02-16T09:31:50.112Z,6.85
2023-02-16T09:34:38.222Z,6.78
2023-02-16T09:37:24.784Z,6.81
2023-02-16T09:40:14.289Z,6.83
2023-02-16T09:43:09.690Z,6.77
2023-02-16T09:45:59.406Z,6.86
2023-02-16T09:48:49.346Z,6.76
2023-02-16T09:51:40.967Z,6.72
2023-02-16T09:54:36.223Z,6.80
2023-02-16T09:57:46.401Z,6.86
2023-02-16T10:00:45.412Z,6.88
2023-02-16T10:03:53.778Z,6.80
2023-02-16T10:06:54.013Z,7.08
2023-02-16T10:09:43.469Z,7.05
2023-02-16T10:12:34.448Z,7.12
2023-02-16T10:15:24.714Z,7.21
2023-02-16T10:18:22.071Z,7.22
2023-02-16T10:21:17.710Z,7.38
2023-02-16T10:24:07.709Z,7.41
2023-02-16T10:27:03.590Z,7.71
2023-02-16T10:29:50.143Z,7.70
2023-02-16T10:32:43.968Z,7.76
2023-02-16T10:35:42.822Z,7.91
2023-02-16T10:38:38.354Z,8.24
2023-02-16T10:41:33.840Z,7.97
2023-02-16T10:44:24.032Z,8.02
2023-02-16T10:47:22.592Z,8.27
2023-02-16T10:50:21.167Z,8.04
2023-02-16T10:53:14.679Z,8.14
2023-02-16T10:56:02.462Z,8.30
2023-02-16T10:58:49.085Z,8.55
2023-02-16T11:01:39.513Z,8.58
2023-02-16T11:04:36.595Z,8.59
2023-02-16T11:07:25.829Z,8.47
2023-02-16T11:10:21.491Z,8.57
2023-02-16T11:13:22.131Z,8.68
2023-02-16T11:16:14.202Z,8.68
2023-02-16T11:19:05.940Z,8.60
2023-02-16T11:21:55.234Z,8.59
2023-02-16T11:24:41.752Z,8.46
2023-02-16T11:27:29.830Z,8.67
2023-02-16T11:30:23.604Z,8.64
2023-02-16T11:33:23.402Z,8.38
2023-02-16T11:36:21.896Z,8.84
2023-02-16T11:39:18.379Z,8.73
2023-02-16T11:42:08.040Z,8.78
2023-02-16T11:44:56.322Z,8.85
2023-02-16T11:47:44.289Z,9.15
2023-02-16T11:50:33.486Z,9.16
2023-02-16T11:53:26.712Z,9.17
2023-02-16T11:56:22.866Z,9.34
2023-02-16T11:59:19.060Z,9.43
2023-02-16T12:02:29.299Z,9.55
2023-02-16T12:05:39.349Z,9.29
2023-02-16T12:08:36.750Z,9.48
2023-02-16T12:11:32.682Z,9.66
2023-02-16T12:14:36.472Z,9.41
2023-02-16T12:17:34.534Z,9.66
2023-02-16T12:20:37.914Z,9.57
2023-02-16T12:23:33.864Z,9.60
2023-02-16T12:26:40.509Z,9.85
2023-02-16T12:29:41.401Z,9.87
2023-02-16T12:32:42.719Z,10.22
2023-02-16T12:36:01.192Z,10.25
2023-02-16T12:39:00.398Z,10.22
2023-02-16T12:41:57.398Z,10.29
2023-02-16T12:44:49.002Z,10.34
2023-02-16T12:47:38.975Z,10.26
2023-02-16T12:50:28.275Z,10.43
2023-02-16T12:53:26.839Z,10.46
2023-02-16T12:56:18.549Z,10.49
2023-02-16T12:59:18.503Z,10.36
2023-02-16T13:02:15.898Z,10.83
2023-02-16T13:05:10.157Z,10.69
2023-02-16T13:08:03.415Z,10.66
2023-02-16T13:10:59.555Z,10.86
2023-02-16T13:13:48.870Z,10.70
2023-02-16T13:16:43.667Z,10.87
2023-02-16T13:19:30.237Z,10.84
2023-02-16T13:22:42.430Z,11.17
2023-02-16T13:25:42.453Z,11.20
2023-02-16T13:28:46.906Z,11.13
2023-02-16T13:31:47.348Z,11.13
2023-02-16T13:35:18.280Z,11.31
2023-02-16T13:38:15.847Z,11.28
2023-02-16T13:41:32.301Z,11.30
2023-02-16T13:44:21.931Z,11.15
2023-02-16T13:47:14.025Z,11.40
2023-02-16T13:50:02.887Z,11.27
2023-02-16T13:52:50.787Z,11.30
2023-02-16T13:55:40.140Z,11.33
2023-02-16T13:58:34.059Z,11.53
2023-02-16T14:01:42.965Z,11.41
2023-02-16T14:05:05.309Z,11.68
2023-02-16T14:08:10.947Z,11.50
2023-02-16T14:11:12.030Z,11.47
2023-02-16T14:13:58.705Z,11.36
2023-02-16T14:16:46.667Z,11.33
2023-02-16T14:19:33.930Z,11.53
2023-02-16T14:22:23.006Z,11.53
2023-02-16T14:25:37.916Z,11.64
2023-02-16T14:29:07.633Z,11.57
2023-02-16T14:32:00.380Z,11.47
2023-02-16T14:34:53.689Z,11.75
2023-02-16T14:37:45.435Z,11.32
2023-02-16T14:40:51.873Z,11.39
2023-02-16T14:43:42.424Z,11.31
2023-02-16T14:46:45.071Z,11.49
2023-02-16T14:50:03.759Z,11.49
2023-02-16T14:53:27.438Z,11.60
2023-02-16T14:56:28.410Z,11.47
2023-02-16T14:59:29.172Z,11.37
2023-02-16T15:02:28.292Z,11.36
2023-02-16T15:05:18.797Z,11.47
2023-02-16T15:08:11.067Z,11.16
2023-02-16T15:10:58.030Z,10.94
2023-02-16T15:13:45.672Z,10.86
2023-02-16T15:16:33.590Z,10.76
2023-02-16T15:19:29.423Z,10.75
2023-02-16T15:22:22.572Z,10.56
2023-02-16T15:25:23.432Z,10.44
2023-02-16T15:28:21.877Z,10.30
2023-02-16T15:31:18.096Z,10.17
2023-02-16T15:34:07.530Z,10.07
2023-02-16T15:36:54.076Z,10.04
2023-02-16T15:39:53.495Z,9.93
2023-02-16T15:42:45.280Z,9.82
2023-02-16T15:45:35.230Z,9.57
2023-02-16T15:48:29.322Z,9.57
2023-02-16T15:51:19.476Z,9.54
2023-02-16T15:54:08.892Z,9.56
2023-02-16T15:56:59.584Z,9.46
2023-02-16T15:59:48.607Z,9.47
2023-02-16T16:02:39.382Z,9.43
2023-02-16T16:05:29.659Z,9.40
2023-02-16T16:08:18.272Z,9.34
2023-02-16T16:11:05.974Z,9.39
2023-02-16T16:13:54.551Z,9.30
2023-02-16T16:16:41.833Z,9.27
2023-02-16T16:19:34.324Z,9.38
2023-02-16T16:22:34.312Z,9.38
2023-02-16T16:25:37.760Z,9.34
2023-02-16T16:28:37.869Z,9.37
2023-02-16T16:31:40.881Z,9.32
2023-02-16T16:34:36.843Z,9.35
2023-02-16T16:37:28.389Z,9.31
2023-02-16T16:40:23.789Z,9.34
2023-02-16T16:43:18.317Z,9.35
2023-02-16T16:46:14.736Z,9.24
2023-02-16T16:49:04.459Z,9.31
2023-02-16T16:51:53.669Z,9.32
2023-02-16T16:54:40.579Z,9.29
2023-02-16T16:57:27.211Z,9.24
2023-02-16T17:00:15.777Z,9.35
2023-02-16T17:03:04.223Z,9.32
2023-02-16T17:05:51.885Z,9.24
2023-02-16T17:08:38.616Z,9.33
2023-02-16T17:11:27.479Z,9.37
2023-02-16T17:14:18.396Z,9.41
2023-02-16T17:17:06.092Z,9.29
2023-02-16T17:19:52.713Z,9.30
2023-02-16T17:22:40.604Z,9.34
2023-02-16T17:25:27.335Z,9.38
2023-02-16T17:28:15.477Z,9.45
2023-02-16T17:31:01.812Z,9.44
2023-02-16T17:33:48.350Z,9.41
2023-02-16T17:36:36.003Z,9.41
2023-02-16T17:39:23.870Z,9.38
2023-02-16T17:42:12.456Z,9.41
2023-02-16T17:44:59.105Z,9.44
2023-02-16T17:47:46.409Z,9.36
2023-02-16T17:50:33.044Z,9.36
2023-02-16T17:53:21.563Z,9.33
2023-02-16T17:56:12.137Z,9.34
2023-02-16T17:58:58.298Z,9.30
2023-02-16T18:01:44.959Z,9.29
2023-02-16T18:04:31.720Z,9.36
2023-02-16T18:07:19.152Z,9.35
2023-02-16T18:10:07.061Z,9.36
2023-02-16T18:12:54.903Z,9.39
2023-02-16T18:15:45.265Z,9.36
2023-02-16T18:18:34.709Z,9.29
2023-02-16T18:21:21.464Z,9.22
2023-02-16T18:24:08.273Z,9.31
2023-02-16T18:26:55.642Z,9.32
2023-02-16T18:29:43.731Z,9.40
2023-02-16T18:32:30.196Z,9.45
2023-02-16T18:35:18.414Z,9.40
2023-02-16T18:38:05.009Z,9.42
2023-02-16T18:40:52.902Z,9.44
2023-02-16T18:43:39.696Z,9.38
2023-02-16T18:46:27.707Z,9.44
2023-02-16T18:49:14.489Z,9.39
2023-02-16T18:52:01.051Z,9.44
2023-02-16T18:54:47.631Z,9.41
2023-02-16T18:57:34.466Z,9.53
2023-02-16T19:00:21.821Z,9.48
2023-02-16T19:03:10.254Z,9.40
2023-02-16T19:05:56.735Z,9.40
2023-02-16T19:08:43.297Z,9.38
2023-02-16T19:11:30.767Z,9.47
2023-02-16T19:14:18.600Z,9.58
2023-02-16T19:17:05.176Z,9.54
2023-02-16T19:19:53.234Z,9.48
2023-02-16T19:22:39.974Z,9.59
2023-02-16T19:25:27.129Z,9.45
2023-02-16T19:28:13.251Z,9.53
2023-02-16T19:31:01.956Z,9.67
2023-02-16T19:33:49.596Z,9.53
2023-02-16T19:36:37.542Z,9.67
2023-02-16T19:39:24.109Z,9.59
2023-02-16T19:42:10.796Z,9.50
2023-02-16T19:45:00.458Z,9.55
2023-02-16T19:47:47.090Z,9.61
2023-02-16T19:50:33.631Z,9.71
2023-02-16T19:53:21.617Z,9.59
2023-02-16T19:56:10.603Z,9.69
2023-02-16T19:58:58.290Z,9.72
2023-02-16T20:01:44.618Z,9.71
2023-02-16T20:04:31.213Z,9.80
2023-02-16T20:07:17.684Z,9.66
2023-02-16T20:10:06.475Z,9.73
2023-02-16T20:12:52.872Z,9.72
2023-02-16T20:15:39.683Z,9.63
2023-02-16T20:18:26.406Z,9.76
2023-02-16T20:21:15.139Z,9.88
2023-02-16T20:24:04.591Z,9.87
2023-02-16T20:26:53.016Z,9.77
2023-02-16T20:29:39.753Z,9.89
2023-02-16T20:32:26.953Z,9.87
2023-02-16T20:35:13.869Z,9.81
2023-02-16T20:38:00.596Z,9.95
2023-02-16T20:40:47.505Z,9.96
2023-02-16T20:43:36.131Z,10.02
2023-02-16T20:46:23.942Z,9.95
2023-02-16T20:49:10.692Z,9.98
2023-02-16T20:51:57.200Z,9.98
2023-02-16T20:54:44.139Z,9.94
2023-02-16T20:57:30.826Z,9.90
2023-02-16T21:00:21.726Z,9.96
2023-02-16T21:03:08.407Z,9.95
2023-02-16T21:05:55.278Z,9.91
2023-02-16T21:08:41.643Z,10.01
2023-02-16T21:11:28.207Z,9.86
2023-02-16T21:14:14.814Z,10.16
2023-02-16T21:17:02.691Z,9.99
2023-02-16T21:19:49.668Z,9.92
2023-02-16T21:22:36.028Z,9.92
2023-02-16T21:25:22.437Z,9.99
2023-02-16T21:28:08.964Z,9.96
2023-02-16T21:30:55.574Z,10.01
2023-02-16T21:33:43.613Z,10.01
2023-02-16T21:36:29.996Z,9.92
2023-02-16T21:39:16.735Z,9.93
2023-02-16T21:42:02.196Z,9.97
2023-02-16T21:44:50.038Z,9.94
2023-02-16T21:47:54.712Z,10.00
2023-02-16T21:50:43.175Z,9.96
2023-02-16T21:53:30.628Z,10.02
2023-02-16T21:56:27.139Z,9.96
2023-02-16T21:59:15.335Z,10.16
2023-02-16T22:02:01.931Z,10.15
2023-02-16T22:04:49.638Z,10.09
2023-02-16T22:07:37.497Z,10.11
2023-02-16T22:10:24.137Z,9.98
2023-02-16T22:13:11.039Z,9.97
2023-02-16T22:15:57.382Z,9.83
2023-02-16T22:18:44.318Z,10.07
2023-02-16T22:21:31.809Z,10.00
2023-02-16T22:24:21.120Z,9.94
2023-02-16T22:27:07.786Z,10.00
2023-02-16T22:29:54.272Z,9.95
2023-02-16T22:32:41.047Z,9.97
2023-02-16T22:35:27.534Z,9.94
2023-02-16T22:38:14.057Z,9.91
2023-02-16T22:41:05.403Z,9.92
2023-02-16T22:43:53.930Z,9.94
2023-02-16T22:46:40.672Z,9.86
2023-02-16T22:49:27.259Z,9.82
2023-02-16T22:52:13.863Z,9.86
2023-02-16T22:55:00.335Z,9.94
2023-02-16T22:57:48.830Z,9.86
2023-02-16T23:03:46.822Z,10.01
2023-02-16T23:06:36.508Z,10.08
2023-02-16T23:09:23.617Z,10.00
2023-02-16T23:12:10.624Z,9.89
2023-02-16T23:14:58.483Z,9.85
2023-02-16T23:17:45.184Z,10.00
2023-02-16T23:20:31.630Z,10.01
2023-02-16T23:23:18.084Z,10.00
2023-02-16T23:26:07.206Z,9.84
2023-02-16T23:28:56.007Z,9.92
2023-02-16T23:31:46.667Z,9.93
2023-02-16T23:34:33.495Z,10.12
2023-02-16T23:37:19.994Z,10.10
2023-02-16T23:40:08.287Z,9.94
2023-02-16T23:42:54.674Z,10.01
2023-02-16T23:45:41.300Z,10.04
2023-02-16T23:48:30.497Z,10.12
2023-02-16T23:51:17.436Z,9.90
2023-02-16T23:54:04.157Z,9.93
2023-02-16T23:56:52.785Z,9.94
2023-02-16T23:59:39.635Z,9.87
